sensor_id;sensor_type;location;lat;lon;timestamp;P1;durP1;ratioP1;P2;durP2;ratioP2
37633;SDS011;32048;49.902;22.508;2023-03-01T00:01:18;85.78;;;34.33;;
37633;SDS011;32048;49.902;22.508;2023-03-01T00:03:47;97.37;;;39.47;;
37633;SDS011;32048;49.902;22.508;2023-03-01T00:06:15;90.60;;;38.37;;
37633;SDS011;32048;49.902;22.508;2023-03-01T00:08:42;88.30;;;35.87;;
37633;SDS011;32048;49.902;22.508;2023-03-01T00:13:39;73.43;;;32.07;;
37633;SDS011;32048;49.902;22.508;2023-03-01T00:16:09;71.22;;;34.00;;
37633;SDS011;32048;49.902;22.508;2023-03-01T00:18:39;71.93;;;31.10;;
37633;SDS011;32048;49.902;22.508;2023-03-01T00:21:07;75.57;;;32.27;;
37633;SDS011;32048;49.902;22.508;2023-03-01T00:23:34;82.37;;;33.53;;
37633;SDS011;32048;49.902;22.508;2023-03-01T00:26:02;82.13;;;36.23;;
37633;SDS011;32048;49.902;22.508;2023-03-01T00:28:32;76.93;;;32.77;;
37633;SDS011;32048;49.902;22.508;2023-03-01T00:31:04;76.30;;;35.00;;
37633;SDS011;32048;49.902;22.508;2023-03-01T00:33:36;76.17;;;33.77;;
37633;SDS011;32048;49.902;22.508;2023-03-01T00:36:03;73.90;;;32.13;;
37633;SDS011;32048;49.902;22.508;2023-03-01T00:38:30;74.43;;;33.43;;
37633;SDS011;32048;49.902;22.508;2023-03-01T00:41:04;74.77;;;37.27;;
37633;SDS011;32048;49.902;22.508;2023-03-01T00:43:35;80.07;;;34.27;;
37633;SDS011;32048;49.902;22.508;2023-03-01T00:46:09;84.87;;;36.57;;
37633;SDS011;32048;49.902;22.508;2023-03-01T00:48:40;86.37;;;37.97;;
37633;SDS011;32048;49.902;22.508;2023-03-01T00:51:09;76.73;;;34.23;;
37633;SDS011;32048;49.902;22.508;2023-03-01T00:53:38;81.07;;;34.43;;
37633;SDS011;32048;49.902;22.508;2023-03-01T00:56:06;66.10;;;30.97;;
37633;SDS011;32048;49.902;22.508;2023-03-01T00:58:35;69.67;;;30.27;;
37633;SDS011;32048;49.902;22.508;2023-03-01T01:01:10;79.63;;;33.27;;
37633;SDS011;32048;49.902;22.508;2023-03-01T01:06:20;78.77;;;34.83;;
37633;SDS011;32048;49.902;22.508;2023-03-01T01:08:49;79.80;;;35.23;;
37633;SDS011;32048;49.902;22.508;2023-03-01T01:11:17;78.45;;;34.88;;
37633;SDS011;32048;49.902;22.508;2023-03-01T01:13:45;63.30;;;31.13;;
37633;SDS011;32048;49.902;22.508;2023-03-01T01:16:14;72.60;;;31.87;;
37633;SDS011;32048;49.902;22.508;2023-03-01T01:18:42;82.30;;;36.60;;
37633;SDS011;32048;49.902;22.508;2023-03-01T01:21:11;74.70;;;31.60;;
37633;SDS011;32048;49.902;22.508;2023-03-01T01:23:40;83.03;;;35.10;;
37633;SDS011;32048;49.902;22.508;2023-03-01T01:28:37;75.72;;;31.42;;
37633;SDS011;32048;49.902;22.508;2023-03-01T01:31:04;70.17;;;29.83;;
37633;SDS011;32048;49.902;22.508;2023-03-01T01:33:32;90.30;;;34.93;;
37633;SDS011;32048;49.902;22.508;2023-03-01T01:35:59;77.03;;;33.75;;
37633;SDS011;32048;49.902;22.508;2023-03-01T01:38:26;72.13;;;30.00;;
37633;SDS011;32048;49.902;22.508;2023-03-01T01:40:54;73.10;;;32.67;;
37633;SDS011;32048;49.902;22.508;2023-03-01T01:43:22;76.13;;;34.17;;
37633;SDS011;32048;49.902;22.508;2023-03-01T01:45:54;71.47;;;31.43;;
37633;SDS011;32048;49.902;22.508;2023-03-01T01:48:24;75.77;;;32.63;;
37633;SDS011;32048;49.902;22.508;2023-03-01T01:51:12;75.80;;;32.60;;
37633;SDS011;32048;49.902;22.508;2023-03-01T01:53:43;79.90;;;36.40;;
37633;SDS011;32048;49.902;22.508;2023-03-01T01:56:13;71.87;;;31.40;;
37633;SDS011;32048;49.902;22.508;2023-03-01T01:58:43;71.13;;;32.70;;
37633;SDS011;32048;49.902;22.508;2023-03-01T02:01:11;69.53;;;31.35;;
37633;SDS011;32048;49.902;22.508;2023-03-01T02:03:38;73.77;;;35.00;;
37633;SDS011;32048;49.902;22.508;2023-03-01T02:08:59;67.47;;;27.57;;
37633;SDS011;32048;49.902;22.508;2023-03-01T02:11:30;63.77;;;29.90;;
37633;SDS011;32048;49.902;22.508;2023-03-01T02:16:26;63.27;;;29.40;;
37633;SDS011;32048;49.902;22.508;2023-03-01T02:18:53;76.07;;;30.33;;
37633;SDS011;32048;49.902;22.508;2023-03-01T02:23:50;81.63;;;34.93;;
37633;SDS011;32048;49.902;22.508;2023-03-01T02:26:40;72.93;;;33.47;;
37633;SDS011;32048;49.902;22.508;2023-03-01T02:29:12;63.83;;;31.03;;
37633;SDS011;32048;49.902;22.508;2023-03-01T02:31:39;77.83;;;32.17;;
37633;SDS011;32048;49.902;22.508;2023-03-01T02:34:10;71.43;;;33.07;;
37633;SDS011;32048;49.902;22.508;2023-03-01T02:36:51;71.63;;;32.03;;
37633;SDS011;32048;49.902;22.508;2023-03-01T02:39:22;72.88;;;32.70;;
37633;SDS011;32048;49.902;22.508;2023-03-01T02:41:53;63.50;;;26.83;;
37633;SDS011;32048;49.902;22.508;2023-03-01T02:44:22;68.83;;;33.17;;
37633;SDS011;32048;49.902;22.508;2023-03-01T02:46:51;58.53;;;28.07;;
37633;SDS011;32048;49.902;22.508;2023-03-01T02:49:23;68.83;;;29.07;;
37633;SDS011;32048;49.902;22.508;2023-03-01T02:51:59;59.70;;;28.10;;
37633;SDS011;32048;49.902;22.508;2023-03-01T02:57:11;63.07;;;29.23;;
37633;SDS011;32048;49.902;22.508;2023-03-01T02:59:38;68.97;;;29.17;;
37633;SDS011;32048;49.902;22.508;2023-03-01T03:02:07;64.10;;;30.85;;
37633;SDS011;32048;49.902;22.508;2023-03-01T03:04:47;63.47;;;27.00;;
37633;SDS011;32048;49.902;22.508;2023-03-01T03:07:14;69.70;;;30.57;;
37633;SDS011;32048;49.902;22.508;2023-03-01T03:09:41;62.77;;;27.87;;
37633;SDS011;32048;49.902;22.508;2023-03-01T03:12:08;70.53;;;29.30;;
37633;SDS011;32048;49.902;22.508;2023-03-01T03:14:35;72.13;;;30.27;;
37633;SDS011;32048;49.902;22.508;2023-03-01T03:17:02;67.23;;;32.13;;
37633;SDS011;32048;49.902;22.508;2023-03-01T03:19:33;61.87;;;27.83;;
37633;SDS011;32048;49.902;22.508;2023-03-01T03:22:00;66.03;;;28.90;;
37633;SDS011;32048;49.902;22.508;2023-03-01T03:24:28;64.60;;;30.27;;
37633;SDS011;32048;49.902;22.508;2023-03-01T03:26:55;69.83;;;30.00;;
37633;SDS011;32048;49.902;22.508;2023-03-01T03:29:22;72.83;;;31.37;;
37633;SDS011;32048;49.902;22.508;2023-03-01T03:31:49;71.37;;;32.50;;
37633;SDS011;32048;49.902;22.508;2023-03-01T03:34:16;69.73;;;31.03;;
37633;SDS011;32048;49.902;22.508;2023-03-01T03:36:44;67.70;;;33.35;;
37633;SDS011;32048;49.902;22.508;2023-03-01T03:39:11;65.30;;;28.77;;
37633;SDS011;32048;49.902;22.508;2023-03-01T03:41:39;79.60;;;31.97;;
37633;SDS011;32048;49.902;22.508;2023-03-01T03:44:05;76.87;;;34.60;;
37633;SDS011;32048;49.902;22.508;2023-03-01T03:46:33;68.60;;;29.90;;
37633;SDS011;32048;49.902;22.508;2023-03-01T03:49:00;74.47;;;33.23;;
37633;SDS011;32048;49.902;22.508;2023-03-01T03:51:27;68.57;;;32.97;;
37633;SDS011;32048;49.902;22.508;2023-03-01T03:53:54;63.67;;;29.30;;
37633;SDS011;32048;49.902;22.508;2023-03-01T03:56:21;62.90;;;29.30;;
37633;SDS011;32048;49.902;22.508;2023-03-01T03:58:54;83.57;;;37.00;;
37633;SDS011;32048;49.902;22.508;2023-03-01T04:01:21;78.43;;;38.17;;
37633;SDS011;32048;49.902;22.508;2023-03-01T04:03:48;76.83;;;37.03;;
37633;SDS011;32048;49.902;22.508;2023-03-01T04:06:21;79.83;;;34.40;;
37633;SDS011;32048;49.902;22.508;2023-03-01T04:08:48;74.53;;;32.43;;
37633;SDS011;32048;49.902;22.508;2023-03-01T04:11:17;78.60;;;34.83;;
37633;SDS011;32048;49.902;22.508;2023-03-01T04:13:54;75.27;;;32.87;;
37633;SDS011;32048;49.902;22.508;2023-03-01T04:16:23;79.30;;;34.40;;
37633;SDS011;32048;49.902;22.508;2023-03-01T04:18:51;72.50;;;31.92;;
37633;SDS011;32048;49.902;22.508;2023-03-01T04:21:23;62.00;;;27.73;;
37633;SDS011;32048;49.902;22.508;2023-03-01T04:23:50;70.27;;;30.67;;
37633;SDS011;32048;49.902;22.508;2023-03-01T04:26:19;69.17;;;28.70;;
37633;SDS011;32048;49.902;22.508;2023-03-01T04:28:47;71.40;;;31.67;;
37633;SDS011;32048;49.902;22.508;2023-03-01T04:31:16;74.17;;;30.43;;
37633;SDS011;32048;49.902;22.508;2023-03-01T04:33:48;82.87;;;33.87;;
37633;SDS011;32048;49.902;22.508;2023-03-01T04:36:21;78.60;;;31.73;;
37633;SDS011;32048;49.902;22.508;2023-03-01T04:38:53;77.57;;;31.77;;
37633;SDS011;32048;49.902;22.508;2023-03-01T04:41:22;56.75;;;26.33;;
37633;SDS011;32048;49.902;22.508;2023-03-01T04:43:50;83.53;;;34.63;;
37633;SDS011;32048;49.902;22.508;2023-03-01T04:46:18;82.00;;;34.37;;
37633;SDS011;32048;49.902;22.508;2023-03-01T04:48:46;76.97;;;34.63;;
37633;SDS011;32048;49.902;22.508;2023-03-01T04:51:14;75.57;;;33.70;;
37633;SDS011;32048;49.902;22.508;2023-03-01T04:53:42;71.32;;;31.08;;
37633;SDS011;32048;49.902;22.508;2023-03-01T04:56:10;64.05;;;29.63;;
37633;SDS011;32048;49.902;22.508;2023-03-01T04:58:37;72.57;;;31.30;;
37633;SDS011;32048;49.902;22.508;2023-03-01T05:01:09;74.27;;;30.43;;
37633;SDS011;32048;49.902;22.508;2023-03-01T05:03:42;78.63;;;35.00;;
37633;SDS011;32048;49.902;22.508;2023-03-01T05:06:11;82.10;;;32.47;;
37633;SDS011;32048;49.902;22.508;2023-03-01T05:08:38;72.43;;;33.70;;
37633;SDS011;32048;49.902;22.508;2023-03-01T05:11:06;73.93;;;34.97;;
37633;SDS011;32048;49.902;22.508;2023-03-01T05:13:36;59.77;;;28.23;;
37633;SDS011;32048;49.902;22.508;2023-03-01T05:16:05;80.27;;;34.83;;
37633;SDS011;32048;49.902;22.508;2023-03-01T05:18:33;73.00;;;32.87;;
37633;SDS011;32048;49.902;22.508;2023-03-01T05:21:05;81.60;;;34.03;;
37633;SDS011;32048;49.902;22.508;2023-03-01T05:23:34;79.50;;;33.97;;
37633;SDS011;32048;49.902;22.508;2023-03-01T05:26:03;76.88;;;35.78;;
37633;SDS011;32048;49.902;22.508;2023-03-01T05:28:36;89.30;;;40.60;;
37633;SDS011;32048;49.902;22.508;2023-03-01T05:31:05;96.00;;;42.53;;
37633;SDS011;32048;49.902;22.508;2023-03-01T05:33:36;94.90;;;44.17;;
37633;SDS011;32048;49.902;22.508;2023-03-01T05:36:05;103.35;;;43.72;;
37633;SDS011;32048;49.902;22.508;2023-03-01T05:41:00;96.80;;;44.53;;
37633;SDS011;32048;49.902;22.508;2023-03-01T05:43:30;89.83;;;42.67;;
37633;SDS011;32048;49.902;22.508;2023-03-01T05:46:01;84.90;;;40.83;;
37633;SDS011;32048;49.902;22.508;2023-03-01T05:48:28;82.53;;;37.80;;
37633;SDS011;32048;49.902;22.508;2023-03-01T05:50:58;99.30;;;42.73;;
37633;SDS011;32048;49.902;22.508;2023-03-01T05:53:26;72.73;;;34.70;;
37633;SDS011;32048;49.902;22.508;2023-03-01T05:55:54;62.33;;;30.23;;
37633;SDS011;32048;49.902;22.508;2023-03-01T05:58:21;66.07;;;33.17;;
37633;SDS011;32048;49.902;22.508;2023-03-01T06:00:48;55.20;;;29.50;;
37633;SDS011;32048;49.902;22.508;2023-03-01T06:03:16;60.13;;;30.20;;
37633;SDS011;32048;49.902;22.508;2023-03-01T06:08:11;71.90;;;35.13;;
37633;SDS011;32048;49.902;22.508;2023-03-01T06:10:39;76.95;;;35.85;;
37633;SDS011;32048;49.902;22.508;2023-03-01T06:13:07;74.43;;;34.67;;
37633;SDS011;32048;49.902;22.508;2023-03-01T06:15:34;68.20;;;33.13;;
37633;SDS011;32048;49.902;22.508;2023-03-01T06:18:01;86.07;;;38.93;;
37633;SDS011;32048;49.902;22.508;2023-03-01T06:20:29;90.43;;;37.30;;
37633;SDS011;32048;49.902;22.508;2023-03-01T06:22:56;65.33;;;34.17;;
37633;SDS011;32048;49.902;22.508;2023-03-01T06:25:24;67.03;;;33.67;;
37633;SDS011;32048;49.902;22.508;2023-03-01T06:27:53;67.33;;;31.80;;
37633;SDS011;32048;49.902;22.508;2023-03-01T06:30:21;56.83;;;31.10;;
37633;SDS011;32048;49.902;22.508;2023-03-01T06:32:49;58.55;;;29.45;;
37633;SDS011;32048;49.902;22.508;2023-03-01T06:35:17;62.57;;;31.00;;
37633;SDS011;32048;49.902;22.508;2023-03-01T06:37:45;61.70;;;31.10;;
37633;SDS011;32048;49.902;22.508;2023-03-01T06:40:14;66.10;;;32.20;;
37633;SDS011;32048;49.902;22.508;2023-03-01T06:42:43;60.25;;;31.33;;
37633;SDS011;32048;49.902;22.508;2023-03-01T06:45:14;60.00;;;32.47;;
37633;SDS011;32048;49.902;22.508;2023-03-01T06:47:41;58.43;;;32.30;;
37633;SDS011;32048;49.902;22.508;2023-03-01T06:50:09;60.83;;;34.23;;
37633;SDS011;32048;49.902;22.508;2023-03-01T06:52:37;65.20;;;36.03;;
37633;SDS011;32048;49.902;22.508;2023-03-01T06:55:04;61.03;;;34.50;;
37633;SDS011;32048;49.902;22.508;2023-03-01T06:57:32;58.70;;;33.13;;
37633;SDS011;32048;49.902;22.508;2023-03-01T06:59:59;53.88;;;30.45;;
37633;SDS011;32048;49.902;22.508;2023-03-01T07:02:26;54.60;;;30.05;;
37633;SDS011;32048;49.902;22.508;2023-03-01T07:04:53;48.05;;;26.08;;
37633;SDS011;32048;49.902;22.508;2023-03-01T07:07:20;45.58;;;26.48;;
37633;SDS011;32048;49.902;22.508;2023-03-01T07:09:48;47.08;;;25.33;;
37633;SDS011;32048;49.902;22.508;2023-03-01T07:12:15;44.33;;;24.05;;
37633;SDS011;32048;49.902;22.508;2023-03-01T07:14:43;41.80;;;23.83;;
37633;SDS011;32048;49.902;22.508;2023-03-01T07:17:10;38.03;;;22.70;;
37633;SDS011;32048;49.902;22.508;2023-03-01T07:19:37;40.53;;;24.42;;
37633;SDS011;32048;49.902;22.508;2023-03-01T07:22:04;41.45;;;22.88;;
37633;SDS011;32048;49.902;22.508;2023-03-01T07:24:34;33.90;;;22.13;;
37633;SDS011;32048;49.902;22.508;2023-03-01T07:27:01;40.85;;;23.65;;
37633;SDS011;32048;49.902;22.508;2023-03-01T07:29:29;43.03;;;22.60;;
37633;SDS011;32048;49.902;22.508;2023-03-01T07:31:56;40.97;;;23.50;;
37633;SDS011;32048;49.902;22.508;2023-03-01T07:34:24;36.92;;;23.77;;
37633;SDS011;32048;49.902;22.508;2023-03-01T07:36:51;37.72;;;22.95;;
37633;SDS011;32048;49.902;22.508;2023-03-01T07:39:19;39.42;;;23.73;;
37633;SDS011;32048;49.902;22.508;2023-03-01T07:41:46;43.05;;;24.67;;
37633;SDS011;32048;49.902;22.508;2023-03-01T07:44:13;41.53;;;23.73;;
37633;SDS011;32048;49.902;22.508;2023-03-01T07:46:40;38.53;;;23.10;;
37633;SDS011;32048;49.902;22.508;2023-03-01T07:49:07;40.03;;;23.60;;
37633;SDS011;32048;49.902;22.508;2023-03-01T07:51:34;37.38;;;22.60;;
37633;SDS011;32048;49.902;22.508;2023-03-01T07:54:02;35.67;;;23.45;;
37633;SDS011;32048;49.902;22.508;2023-03-01T07:56:29;31.88;;;21.52;;
37633;SDS011;32048;49.902;22.508;2023-03-01T07:58:58;33.95;;;22.45;;
37633;SDS011;32048;49.902;22.508;2023-03-01T08:01:26;30.92;;;20.88;;
37633;SDS011;32048;49.902;22.508;2023-03-01T08:03:53;35.10;;;22.13;;
37633;SDS011;32048;49.902;22.508;2023-03-01T08:06:20;32.30;;;20.63;;
37633;SDS011;32048;49.902;22.508;2023-03-01T08:08:48;31.48;;;20.17;;
37633;SDS011;32048;49.902;22.508;2023-03-01T08:11:15;21.33;;;13.25;;
37633;SDS011;32048;49.902;22.508;2023-03-01T08:13:43;18.08;;;12.30;;
37633;SDS011;32048;49.902;22.508;2023-03-01T08:16:11;23.60;;;13.82;;
37633;SDS011;32048;49.902;22.508;2023-03-01T08:18:41;19.02;;;13.07;;
37633;SDS011;32048;49.902;22.508;2023-03-01T08:21:14;17.92;;;12.07;;
37633;SDS011;32048;49.902;22.508;2023-03-01T08:23:43;16.50;;;10.75;;
37633;SDS011;32048;49.902;22.508;2023-03-01T08:26:11;23.05;;;12.88;;
37633;SDS011;32048;49.902;22.508;2023-03-01T08:28:40;18.13;;;12.70;;
37633;SDS011;32048;49.902;22.508;2023-03-01T08:31:28;16.38;;;11.45;;
37633;SDS011;32048;49.902;22.508;2023-03-01T08:33:56;19.02;;;13.23;;
37633;SDS011;32048;49.902;22.508;2023-03-01T08:36:30;21.42;;;14.45;;
37633;SDS011;32048;49.902;22.508;2023-03-01T08:38:59;28.35;;;14.30;;
37633;SDS011;32048;49.902;22.508;2023-03-01T08:41:27;18.90;;;13.80;;
37633;SDS011;32048;49.902;22.508;2023-03-01T08:43:54;19.42;;;12.98;;
37633;SDS011;32048;49.902;22.508;2023-03-01T08:46:28;17.10;;;13.60;;
37633;SDS011;32048;49.902;22.508;2023-03-01T08:48:58;20.35;;;14.05;;
37633;SDS011;32048;49.902;22.508;2023-03-01T08:51:26;19.65;;;14.43;;
37633;SDS011;32048;49.902;22.508;2023-03-01T08:53:53;41.38;;;30.40;;
37633;SDS011;32048;49.902;22.508;2023-03-01T08:56:20;21.23;;;14.02;;
37633;SDS011;32048;49.902;22.508;2023-03-01T08:58:48;20.92;;;15.82;;
37633;SDS011;32048;49.902;22.508;2023-03-01T09:01:17;20.42;;;14.85;;
37633;SDS011;32048;49.902;22.508;2023-03-01T09:03:45;23.13;;;16.55;;
37633;SDS011;32048;49.902;22.508;2023-03-01T09:06:13;21.83;;;16.83;;
37633;SDS011;32048;49.902;22.508;2023-03-01T09:08:42;25.67;;;18.10;;
37633;SDS011;32048;49.902;22.508;2023-03-01T09:11:11;23.38;;;17.25;;
37633;SDS011;32048;49.902;22.508;2023-03-01T09:13:42;26.67;;;19.15;;
37633;SDS011;32048;49.902;22.508;2023-03-01T09:16:11;26.40;;;19.67;;
37633;SDS011;32048;49.902;22.508;2023-03-01T09:18:40;21.15;;;16.55;;
37633;SDS011;32048;49.902;22.508;2023-03-01T09:21:11;23.17;;;16.33;;
37633;SDS011;32048;49.902;22.508;2023-03-01T09:23:44;20.23;;;15.80;;
37633;SDS011;32048;49.902;22.508;2023-03-01T09:26:14;27.27;;;17.70;;
37633;SDS011;32048;49.902;22.508;2023-03-01T09:28:48;50.97;;;33.28;;
37633;SDS011;32048;49.902;22.508;2023-03-01T09:31:19;25.52;;;18.48;;
37633;SDS011;32048;49.902;22.508;2023-03-01T09:33:52;49.42;;;30.75;;
37633;SDS011;32048;49.902;22.508;2023-03-01T09:36:29;37.90;;;23.10;;
37633;SDS011;32048;49.902;22.508;2023-03-01T09:38:57;28.35;;;20.45;;
37633;SDS011;32048;49.902;22.508;2023-03-01T09:41:45;19.60;;;15.32;;
37633;SDS011;32048;49.902;22.508;2023-03-01T09:44:18;49.73;;;28.73;;
37633;SDS011;32048;49.902;22.508;2023-03-01T09:47:02;28.38;;;20.13;;
37633;SDS011;32048;49.902;22.508;2023-03-01T09:49:32;27.98;;;19.38;;
37633;SDS011;32048;49.902;22.508;2023-03-01T09:55:13;21.80;;;16.38;;
37633;SDS011;32048;49.902;22.508;2023-03-01T10:00:23;22.35;;;16.20;;
37633;SDS011;32048;49.902;22.508;2023-03-01T10:06:39;23.27;;;15.90;;
37633;SDS011;32048;49.902;22.508;2023-03-01T10:09:17;21.40;;;15.73;;
37633;SDS011;32048;49.902;22.508;2023-03-01T10:11:47;21.65;;;14.55;;
37633;SDS011;32048;49.902;22.508;2023-03-01T10:14:31;21.05;;;15.30;;
37633;SDS011;32048;49.902;22.508;2023-03-01T10:17:12;25.40;;;17.08;;
37633;SDS011;32048;49.902;22.508;2023-03-01T10:19:52;23.75;;;18.02;;
37633;SDS011;32048;49.902;22.508;2023-03-01T10:22:27;24.98;;;17.88;;
37633;SDS011;32048;49.902;22.508;2023-03-01T10:24:57;23.70;;;17.92;;
37633;SDS011;32048;49.902;22.508;2023-03-01T10:30:21;21.83;;;17.05;;
37633;SDS011;32048;49.902;22.508;2023-03-01T10:33:03;23.02;;;17.33;;
37633;SDS011;32048;49.902;22.508;2023-03-01T10:35:45;24.02;;;17.52;;
37633;SDS011;32048;49.902;22.508;2023-03-01T10:38:17;22.60;;;17.45;;
37633;SDS011;32048;49.902;22.508;2023-03-01T10:43:19;26.55;;;19.42;;
37633;SDS011;32048;49.902;22.508;2023-03-01T10:45:47;23.02;;;17.85;;
37633;SDS011;32048;49.902;22.508;2023-03-01T10:48:24;23.92;;;17.13;;
37633;SDS011;32048;49.902;22.508;2023-03-01T10:53:26;28.10;;;19.52;;
37633;SDS011;32048;49.902;22.508;2023-03-01T10:55:56;27.13;;;16.60;;
37633;SDS011;32048;49.902;22.508;2023-03-01T10:58:27;21.63;;;16.92;;
37633;SDS011;32048;49.902;22.508;2023-03-01T11:00:56;23.73;;;16.60;;
37633;SDS011;32048;49.902;22.508;2023-03-01T11:03:35;25.83;;;18.23;;
37633;SDS011;32048;49.902;22.508;2023-03-01T11:08:41;23.20;;;17.08;;
37633;SDS011;32048;49.902;22.508;2023-03-01T11:11:21;25.20;;;18.02;;
37633;SDS011;32048;49.902;22.508;2023-03-01T11:14:13;22.48;;;15.95;;
37633;SDS011;32048;49.902;22.508;2023-03-01T11:17:00;19.85;;;15.02;;
37633;SDS011;32048;49.902;22.508;2023-03-01T11:19:30;20.42;;;14.63;;
37633;SDS011;32048;49.902;22.508;2023-03-01T11:24:33;18.13;;;13.27;;
37633;SDS011;32048;49.902;22.508;2023-03-01T11:27:31;19.25;;;12.95;;
37633;SDS011;32048;49.902;22.508;2023-03-01T11:32:26;17.83;;;11.48;;
37633;SDS011;32048;49.902;22.508;2023-03-01T11:35:02;21.83;;;14.38;;
37633;SDS011;32048;49.902;22.508;2023-03-01T11:40:13;19.27;;;14.35;;
37633;SDS011;32048;49.902;22.508;2023-03-01T11:45:16;19.70;;;14.75;;
37633;SDS011;32048;49.902;22.508;2023-03-01T11:50:28;40.60;;;27.27;;
37633;SDS011;32048;49.902;22.508;2023-03-01T11:53:13;26.05;;;18.20;;
37633;SDS011;32048;49.902;22.508;2023-03-01T11:56:10;21.05;;;16.00;;
37633;SDS011;32048;49.902;22.508;2023-03-01T12:32:55;27.52;;;19.27;;
37633;SDS011;32048;49.902;22.508;2023-03-01T12:36:06;29.67;;;20.23;;
37633;SDS011;32048;49.902;22.508;2023-03-01T12:38:41;27.83;;;19.52;;
37633;SDS011;32048;49.902;22.508;2023-03-01T12:49:31;28.87;;;19.30;;
37633;SDS011;32048;49.902;22.508;2023-03-01T12:52:20;30.48;;;20.25;;
37633;SDS011;32048;49.902;22.508;2023-03-01T12:54:55;27.75;;;19.67;;
37633;SDS011;32048;49.902;22.508;2023-03-01T12:57:32;28.27;;;18.90;;
37633;SDS011;32048;49.902;22.508;2023-03-01T13:00:20;31.33;;;20.17;;
37633;SDS011;32048;49.902;22.508;2023-03-01T13:08:29;27.60;;;18.98;;
37633;SDS011;32048;49.902;22.508;2023-03-01T13:11:00;40.22;;;26.38;;
37633;SDS011;32048;49.902;22.508;2023-03-01T13:13:30;31.35;;;19.00;;
37633;SDS011;32048;49.902;22.508;2023-03-01T13:15:58;31.17;;;19.33;;
37633;SDS011;32048;49.902;22.508;2023-03-01T13:18:48;29.20;;;18.73;;
37633;SDS011;32048;49.902;22.508;2023-03-01T13:21:15;27.30;;;18.20;;
37633;SDS011;32048;49.902;22.508;2023-03-01T13:23:57;25.60;;;18.08;;
37633;SDS011;32048;49.902;22.508;2023-03-01T13:26:24;29.73;;;19.63;;
37633;SDS011;32048;49.902;22.508;2023-03-01T13:28:52;23.27;;;17.60;;
37633;SDS011;32048;49.902;22.508;2023-03-01T13:37:22;27.75;;;19.10;;
37633;SDS011;32048;49.902;22.508;2023-03-01T13:39:52;29.38;;;18.95;;
37633;SDS011;32048;49.902;22.508;2023-03-01T13:42:30;29.60;;;18.95;;
37633;SDS011;32048;49.902;22.508;2023-03-01T13:45:05;24.58;;;16.38;;
37633;SDS011;32048;49.902;22.508;2023-03-01T13:47:45;27.90;;;17.95;;
37633;SDS011;32048;49.902;22.508;2023-03-01T13:50:17;27.25;;;17.45;;
37633;SDS011;32048;49.902;22.508;2023-03-01T13:53:00;26.10;;;17.52;;
37633;SDS011;32048;49.902;22.508;2023-03-01T13:55:40;30.17;;;18.65;;
37633;SDS011;32048;49.902;22.508;2023-03-01T13:58:28;25.50;;;17.70;;
37633;SDS011;32048;49.902;22.508;2023-03-01T14:01:01;28.75;;;18.90;;
37633;SDS011;32048;49.902;22.508;2023-03-01T14:03:39;31.98;;;18.35;;
37633;SDS011;32048;49.902;22.508;2023-03-01T14:06:10;30.05;;;19.98;;
37633;SDS011;32048;49.902;22.508;2023-03-01T14:08:46;27.85;;;16.80;;
37633;SDS011;32048;49.902;22.508;2023-03-01T14:16:50;31.60;;;20.05;;
37633;SDS011;32048;49.902;22.508;2023-03-01T14:19:39;36.33;;;18.95;;
37633;SDS011;32048;49.902;22.508;2023-03-01T14:22:22;25.75;;;15.77;;
37633;SDS011;32048;49.902;22.508;2023-03-01T14:24:52;26.27;;;16.02;;
37633;SDS011;32048;49.902;22.508;2023-03-01T14:27:23;32.03;;;18.52;;
37633;SDS011;32048;49.902;22.508;2023-03-01T14:30:13;26.55;;;16.00;;
37633;SDS011;32048;49.902;22.508;2023-03-01T14:33:02;30.35;;;18.23;;
37633;SDS011;32048;49.902;22.508;2023-03-01T14:35:33;26.67;;;15.82;;
37633;SDS011;32048;49.902;22.508;2023-03-01T14:40:33;172.27;;;86.53;;
37633;SDS011;32048;49.902;22.508;2023-03-01T14:43:08;26.45;;;15.07;;
37633;SDS011;32048;49.902;22.508;2023-03-01T14:45:38;34.83;;;21.27;;
37633;SDS011;32048;49.902;22.508;2023-03-01T14:48:05;27.83;;;15.82;;
37633;SDS011;32048;49.902;22.508;2023-03-01T14:50:34;29.92;;;17.48;;
37633;SDS011;32048;49.902;22.508;2023-03-01T14:53:04;29.60;;;16.52;;
37633;SDS011;32048;49.902;22.508;2023-03-01T14:55:35;27.70;;;16.17;;
37633;SDS011;32048;49.902;22.508;2023-03-01T14:58:06;43.65;;;20.58;;
37633;SDS011;32048;49.902;22.508;2023-03-01T15:00:38;60.85;;;31.88;;
37633;SDS011;32048;49.902;22.508;2023-03-01T15:03:22;35.05;;;20.40;;
37633;SDS011;32048;49.902;22.508;2023-03-01T15:05:52;43.05;;;23.00;;
37633;SDS011;32048;49.902;22.508;2023-03-01T15:08:21;47.42;;;26.65;;
37633;SDS011;32048;49.902;22.508;2023-03-01T15:10:58;37.87;;;19.27;;
37633;SDS011;32048;49.902;22.508;2023-03-01T15:13:29;29.98;;;17.20;;
37633;SDS011;32048;49.902;22.508;2023-03-01T15:16:04;36.92;;;22.60;;
37633;SDS011;32048;49.902;22.508;2023-03-01T15:18:36;42.67;;;24.40;;
37633;SDS011;32048;49.902;22.508;2023-03-01T15:21:08;34.70;;;18.92;;
37633;SDS011;32048;49.902;22.508;2023-03-01T15:26:50;43.57;;;22.33;;
37633;SDS011;32048;49.902;22.508;2023-03-01T15:29:25;40.47;;;22.03;;
37633;SDS011;32048;49.902;22.508;2023-03-01T15:32:00;37.80;;;21.50;;
37633;SDS011;32048;49.902;22.508;2023-03-01T15:34:35;30.00;;;18.77;;
37633;SDS011;32048;49.902;22.508;2023-03-01T15:37:05;32.05;;;17.48;;
37633;SDS011;32048;49.902;22.508;2023-03-01T15:39:55;34.17;;;18.90;;
37633;SDS011;32048;49.902;22.508;2023-03-01T15:47:46;41.97;;;21.37;;
37633;SDS011;32048;49.902;22.508;2023-03-01T15:50:25;44.37;;;24.33;;
37633;SDS011;32048;49.902;22.508;2023-03-01T15:53:05;48.93;;;25.67;;
37633;SDS011;32048;49.902;22.508;2023-03-01T15:55:34;55.90;;;27.67;;
37633;SDS011;32048;49.902;22.508;2023-03-01T15:58:16;88.50;;;37.83;;
37633;SDS011;32048;49.902;22.508;2023-03-01T16:00:47;63.40;;;30.70;;
37633;SDS011;32048;49.902;22.508;2023-03-01T16:03:26;231.27;;;90.67;;
37633;SDS011;32048;49.902;22.508;2023-03-01T16:05:54;110.57;;;63.60;;
37633;SDS011;32048;49.902;22.508;2023-03-01T16:08:21;211.03;;;94.10;;
37633;SDS011;32048;49.902;22.508;2023-03-01T16:10:48;205.33;;;98.33;;
37633;SDS011;32048;49.902;22.508;2023-03-01T16:13:17;119.37;;;56.10;;
37633;SDS011;32048;49.902;22.508;2023-03-01T16:15:46;130.02;;;58.63;;
37633;SDS011;32048;49.902;22.508;2023-03-01T16:18:13;99.67;;;48.23;;
37633;SDS011;32048;49.902;22.508;2023-03-01T16:20:40;124.33;;;57.77;;
37633;SDS011;32048;49.902;22.508;2023-03-01T16:23:08;449.30;;;220.23;;
37633;SDS011;32048;49.902;22.508;2023-03-01T16:25:37;403.60;;;188.03;;
37633;SDS011;32048;49.902;22.508;2023-03-01T16:28:04;463.90;;;201.73;;
37633;SDS011;32048;49.902;22.508;2023-03-01T16:30:37;493.53;;;194.30;;
37633;SDS011;32048;49.902;22.508;2023-03-01T16:33:06;364.30;;;140.63;;
37633;SDS011;32048;49.902;22.508;2023-03-01T16:35:54;262.88;;;105.80;;
37633;SDS011;32048;49.902;22.508;2023-03-01T16:38:21;277.23;;;110.30;;